Time;durP1;ratioP1;P1;durP2;ratioP2;P2;SDS_P1;SDS_P2;PMS_P1;PMS_P2;Temp;Humidity;BMP_temperature;BMP_pressure;BME280_temperature;BME280_humidity;BME280_pressure;Samples;Min_cycle;Max_cycle;Signal;HPM_P1;HPM_P2
2022/04/29 00:01:38;;;;;;;42.53;14.37;;;4.70;99.90;;;;;;4426396;28;657492;-67
2022/04/29 00:04:26;;;;;;;38.27;15.67;;;4.70;99.90;;;;;;4405875;28;658171;-67
2022/04/29 00:07:15;;;;;;;42.80;15.33;;;4.70;99.90;;;;;;4422317;28;658249;-67
2022/04/29 00:10:02;;;;;;;44.97;14.57;;;4.60;99.90;;;;;;4405910;28;657753;-67
2022/04/29 00:12:49;;;;;;;36.57;14.60;;;4.60;99.90;;;;;;4423352;28;657387;-67
2022/04/29 00:15:37;;;;;;;35.20;15.90;;;4.60;99.90;;;;;;4403699;28;658221;-67
2022/04/29 00:18:24;;;;;;;41.87;15.70;;;4.50;99.90;;;;;;4425730;28;658772;-68
2022/04/29 00:21:11;;;;;;;37.20;15.47;;;4.70;99.90;;;;;;4406659;28;659137;-67
2022/04/29 00:24:00;;;;;;;37.67;14.70;;;4.70;99.90;;;;;;4424550;28;658350;-67
2022/04/29 00:26:47;;;;;;;36.37;14.57;;;4.70;99.90;;;;;;4401635;28;659326;-67
2022/04/29 00:29:34;;;;;;;34.70;14.50;;;4.50;99.90;;;;;;4425374;28;658056;-67
2022/04/29 00:32:22;;;;;;;40.17;15.60;;;4.60;99.90;;;;;;4405624;28;657574;-67
2022/04/29 00:35:09;;;;;;;35.42;15.13;;;4.50;99.90;;;;;;4423657;28;658145;-67
2022/04/29 00:37:57;;;;;;;39.30;15.93;;;4.50;99.90;;;;;;4405322;28;657932;-67
2022/04/29 00:40:46;;;;;;;30.93;15.27;;;4.60;99.90;;;;;;4422925;28;657928;-67
2022/04/29 00:43:33;;;;;;;31.73;14.57;;;4.60;99.90;;;;;;4417670;28;658234;-67
2022/04/29 00:46:20;;;;;;;41.20;15.03;;;4.60;99.90;;;;;;4423586;28;658336;-67
2022/04/29 00:49:11;;;;;;;39.10;15.23;;;4.60;99.90;;;;;;4441419;28;658148;-67
2022/04/29 00:51:58;;;;;;;39.00;17.07;;;4.60;99.90;;;;;;4418592;28;658394;-67
2022/04/29 00:54:51;;;;;;;36.60;16.30;;;4.70;99.90;;;;;;4422411;28;657863;-67
2022/04/29 00:57:42;;;;;;;44.37;17.97;;;4.80;99.90;;;;;;4420540;28;658034;-67
2022/04/29 01:00:31;;;;;;;35.83;16.27;;;4.90;99.90;;;;;;4419804;28;658015;-67
2022/04/29 01:03:18;;;;;;;38.10;17.47;;;5.00;99.90;;;;;;4423712;28;657857;-67
2022/04/29 01:06:06;;;;;;;36.13;17.60;;;5.10;99.90;;;;;;4425380;28;657535;-67
2022/04/29 01:08:53;;;;;;;37.57;15.87;;;5.10;99.90;;;;;;4446854;28;658287;-67
2022/04/29 01:11:40;;;;;;;33.73;14.60;;;5.10;99.90;;;;;;4426784;28;657140;-67
2022/04/29 01:14:29;;;;;;;30.63;14.83;;;4.70;99.90;;;;;;4450144;28;658256;-68
2022/04/29 01:17:16;;;;;;;30.50;14.30;;;4.40;99.90;;;;;;4422405;28;657397;-67
2022/04/29 01:20:04;;;;;;;36.43;15.53;;;4.40;99.90;;;;;;4445040;28;658457;-67
2022/04/29 01:22:52;;;;;;;30.27;15.07;;;4.40;99.90;;;;;;4423222;28;657621;-67
2022/04/29 01:25:40;;;;;;;39.40;15.53;;;4.40;99.90;;;;;;4449750;28;657928;-67
2022/04/29 01:28:27;;;;;;;36.00;15.87;;;4.20;99.90;;;;;;4421824;28;658504;-67
2022/04/29 01:31:16;;;;;;;35.03;16.67;;;4.20;99.90;;;;;;4440388;28;657522;-67
2022/04/29 01:34:03;;;;;;;38.77;15.63;;;4.20;99.90;;;;;;4448250;28;658583;-67
2022/04/29 01:36:50;;;;;;;35.30;16.63;;;4.10;99.90;;;;;;4431289;28;658280;-67
2022/04/29 01:39:39;;;;;;;35.53;17.07;;;4.50;99.90;;;;;;4446236;28;658613;-67
2022/04/29 01:42:26;;;;;;;30.53;13.27;;;4.50;99.90;;;;;;4426568;28;657376;-67
2022/04/29 01:45:13;;;;;;;39.87;15.87;;;3.90;99.90;;;;;;4444662;28;658267;-67
2022/04/29 01:48:01;;;;;;;31.37;15.50;;;3.90;99.90;;;;;;4425383;28;657070;-67
2022/04/29 01:50:48;;;;;;;32.07;16.13;;;3.80;99.90;;;;;;4442293;28;658036;-67
2022/04/29 01:53:35;;;;;;;31.55;14.75;;;3.70;99.90;;;;;;4426039;28;658088;-67
2022/04/29 01:56:32;;;;;;;27.07;14.63;;;3.50;99.90;;;;;;4448456;28;657936;-67
2022/04/29 01:59:20;;;;;;;42.07;16.20;;;3.40;99.90;;;;;;4422389;28;657768;-67
2022/04/29 02:02:07;;;;;;;36.90;16.83;;;3.60;99.90;;;;;;4425969;28;658823;-67
2022/04/29 02:04:54;;;;;;;39.70;17.13;;;3.60;99.90;;;;;;4441965;28;657721;-67
2022/04/29 02:07:44;;;;;;;33.25;15.35;;;3.50;99.90;;;;;;4426569;28;657424;-67
2022/04/29 02:10:31;;;;;;;31.07;14.43;;;3.40;99.90;;;;;;4423937;28;657857;-67
2022/04/29 02:13:20;;;;;;;34.83;15.67;;;3.10;99.90;;;;;;4448029;28;657906;-67
2022/04/29 02:16:07;;;;;;;33.40;16.00;;;2.90;99.90;;;;;;4424560;28;658334;-67
2022/04/29 02:18:54;;;;;;;31.83;15.40;;;2.90;99.90;;;;;;4444534;28;658254;-67
2022/04/29 02:21:41;;;;;;;31.90;16.23;;;2.80;99.90;;;;;;4423290;28;657365;-67
2022/04/29 02:24:29;;;;;;;38.33;17.27;;;2.70;99.90;;;;;;4444688;28;657711;-67
2022/04/29 02:27:16;;;;;;;38.13;17.73;;;2.70;99.90;;;;;;4425769;28;657661;-67
2022/04/29 02:30:05;;;;;;;42.17;17.90;;;2.70;99.90;;;;;;4448091;28;657726;-67
2022/04/29 02:32:52;;;;;;;44.63;19.37;;;2.80;99.90;;;;;;4420798;28;658193;-67
2022/04/29 02:35:39;;;;;;;39.33;17.50;;;2.80;99.90;;;;;;4441549;28;657843;-67
2022/04/29 02:38:27;;;;;;;47.20;18.07;;;2.80;99.90;;;;;;4425227;28;657421;-67
2022/04/29 02:41:14;;;;;;;38.47;18.23;;;2.80;99.90;;;;;;4448858;28;657124;-67
2022/04/29 02:44:01;;;;;;;41.87;18.67;;;2.90;99.90;;;;;;4424506;28;658094;-67
2022/04/29 02:47:07;;;;;;;38.80;16.90;;;2.90;99.90;;;;;;4442065;28;658821;-67
2022/04/29 02:49:55;;;;;;;36.43;17.17;;;2.90;99.90;;;;;;4441264;28;657542;-67
2022/04/29 02:52:43;;;;;;;39.00;18.63;;;2.90;99.90;;;;;;4441813;28;659015;-67
2022/04/29 02:55:30;;;;;;;52.27;20.70;;;3.00;99.90;;;;;;4436559;28;657885;-67
2022/04/29 02:58:17;;;;;;;39.67;18.47;;;3.20;99.90;;;;;;4443903;28;658152;-67
2022/04/29 03:01:04;;;;;;;39.40;19.10;;;3.30;99.90;;;;;;4442699;28;657849;-67
2022/04/29 03:03:53;;;;;;;35.50;17.17;;;3.50;99.90;;;;;;4423298;28;657399;-67
2022/04/29 03:06:40;;;;;;;40.00;18.07;;;3.50;99.90;;;;;;4425947;28;657975;-67
2022/04/29 03:09:28;;;;;;;36.13;16.60;;;3.50;99.90;;;;;;4439451;28;659041;-67
2022/04/29 03:12:15;;;;;;;35.03;16.90;;;3.50;99.90;;;;;;4428666;28;657611;-67
2022/04/29 03:15:16;;;;;;;36.37;18.20;;;3.60;99.90;;;;;;4446664;28;658172;-67
2022/04/29 03:18:20;;;;;;;37.90;17.13;;;3.60;99.90;;;;;;4419966;28;658145;-67
2022/04/29 03:21:10;;;;;;;36.10;17.30;;;3.70;99.90;;;;;;4400236;28;657687;-67
2022/04/29 03:23:57;;;;;;;42.90;15.80;;;3.80;99.90;;;;;;4419102;28;658193;-67
2022/04/29 03:26:45;;;;;;;32.70;16.37;;;3.80;99.90;;;;;;4438554;28;657707;-66
2022/04/29 03:29:32;;;;;;;38.40;16.00;;;3.70;99.90;;;;;;4447594;28;658252;-67
2022/04/29 03:32:20;;;;;;;39.50;16.77;;;3.70;99.90;;;;;;4440348;28;657595;-67
2022/04/29 03:35:08;;;;;;;39.53;16.92;;;3.60;99.90;;;;;;4447498;28;657550;-67
2022/04/29 03:37:57;;;;;;;36.53;16.73;;;3.60;99.90;;;;;;4427440;28;657703;-67
2022/04/29 03:40:44;;;;;;;34.33;16.20;;;3.50;99.90;;;;;;4441622;28;658118;-66
2022/04/29 03:43:31;;;;;;;34.93;16.10;;;3.40;99.90;;;;;;4424424;28;657691;-66
2022/04/29 03:46:18;;;;;;;40.40;16.67;;;3.30;99.90;;;;;;4441958;28;658578;-67
2022/04/29 03:52:10;;;;;;;32.90;15.33;;;3.20;99.90;;;;;;4399034;28;659710;-67
2022/04/29 03:54:59;;;;;;;35.20;16.27;;;3.20;99.90;;;;;;4446347;28;657829;-67
2022/04/29 03:57:46;;;;;;;32.23;15.57;;;3.30;99.90;;;;;;4422241;28;658302;-67
2022/04/29 04:00:34;;;;;;;33.47;16.17;;;3.40;99.90;;;;;;4446249;28;658234;-67
2022/04/29 04:03:21;;;;;;;41.13;17.97;;;3.50;99.90;;;;;;4425446;28;658185;-67
2022/04/29 04:09:13;;;;;;;32.57;15.83;;;3.80;99.90;;;;;;4420595;28;658417;-67
2022/04/29 04:12:02;;;;;;;39.27;17.00;;;3.90;99.90;;;;;;4422479;28;658194;-67
2022/04/29 04:14:49;;;;;;;35.53;17.10;;;4.10;99.90;;;;;;4442384;28;658057;-67
2022/04/29 04:17:36;;;;;;;39.90;16.70;;;4.40;99.90;;;;;;4424229;28;657884;-67
2022/04/29 04:20:23;;;;;;;36.97;17.50;;;4.70;99.90;;;;;;4443458;28;658987;-67
2022/04/29 04:23:10;;;;;;;40.33;20.27;;;4.90;99.90;;;;;;4422994;28;657887;-67
2022/04/29 04:25:58;;;;;;;35.43;16.93;;;5.10;99.90;;;;;;4439482;28;658699;-67
2022/04/29 04:28:46;;;;;;;31.23;16.07;;;5.30;99.90;;;;;;4432806;28;658311;-67
2022/04/29 04:31:34;;;;;;;30.37;15.77;;;5.40;99.90;;;;;;4438716;28;657957;-67
2022/04/29 04:37:26;;;;;;;33.27;15.53;;;5.60;99.90;;;;;;4423488;28;657685;-67
2022/04/29 04:40:13;;;;;;;32.80;15.37;;;5.80;99.90;;;;;;4448467;28;657303;-67
2022/04/29 04:43:01;;;;;;;36.03;16.90;;;5.80;99.90;;;;;;4425527;28;657669;-67
2022/04/29 04:45:49;;;;;;;39.50;17.73;;;5.80;99.90;;;;;;4446111;28;657814;-67
2022/04/29 04:48:36;;;;;;;34.20;16.97;;;5.90;99.90;;;;;;4427388;28;657354;-67
2022/04/29 04:51:24;;;;;;;29.73;16.23;;;5.90;99.90;;;;;;4444729;28;658771;-67
2022/04/29 04:54:11;;;;;;;33.53;16.80;;;5.90;99.90;;;;;;4424481;28;659045;-67
2022/04/29 04:56:58;;;;;;;31.40;15.93;;;5.90;99.90;;;;;;4444164;28;658495;-67
2022/04/29 04:59:45;;;;;;;39.50;17.30;;;6.00;99.90;;;;;;4424138;28;657932;-67
2022/04/29 05:02:34;;;;;;;35.53;17.23;;;6.00;99.90;;;;;;4444778;28;658616;-67
2022/04/29 05:05:21;;;;;;;32.07;16.70;;;6.20;99.90;;;;;;4425103;28;658264;-67
2022/04/29 05:08:08;;;;;;;34.87;17.87;;;6.30;99.90;;;;;;4444598;28;658165;-67
2022/04/29 05:10:55;;;;;;;40.03;21.27;;;6.40;99.90;;;;;;4423817;28;658359;-67
2022/04/29 05:13:42;;;;;;;39.00;18.40;;;6.60;99.90;;;;;;4441635;28;659163;-67
2022/04/29 05:16:30;;;;;;;38.00;18.77;;;6.80;99.90;;;;;;4444758;28;657397;-67
2022/04/29 05:19:19;;;;;;;41.03;18.87;;;7.00;99.90;;;;;;4449103;28;658210;-67
2022/04/29 05:22:06;;;;;;;40.38;20.02;;;7.20;99.90;;;;;;4419253;28;657595;-67
2022/04/29 05:24:53;;;;;;;46.37;19.63;;;7.40;99.90;;;;;;4442660;28;657380;-67
2022/04/29 05:27:40;;;;;;;39.83;18.83;;;7.50;99.90;;;;;;4418294;28;657962;-67
2022/04/29 05:30:27;;;;;;;42.97;18.93;;;7.70;99.90;;;;;;4444688;28;659306;-67
2022/04/29 05:33:15;;;;;;;51.40;19.00;;;7.90;99.90;;;;;;4441206;28;658428;-67
2022/04/29 05:36:05;;;;;;;38.07;18.30;;;8.00;99.90;;;;;;4448353;28;658089;-67
2022/04/29 05:45:01;;;;;;;47.90;21.83;;;8.40;99.90;;;;;;4423864;28;657556;-68
2022/04/29 05:47:48;;;;;;;52.67;24.00;;;8.50;99.90;;;;;;4440200;28;658106;-67
2022/04/29 05:50:36;;;;;;;54.30;22.90;;;8.70;99.90;;;;;;4424357;28;657980;-67
2022/04/29 05:53:24;;;;;;;57.27;24.33;;;8.80;99.90;;;;;;4447304;28;658183;-67
2022/04/29 05:56:11;;;;;;;45.83;23.70;;;9.00;99.90;;;;;;4420248;28;657639;-67
2022/04/29 05:58:59;;;;;;;48.50;23.50;;;9.10;99.90;;;;;;4441455;28;658179;-67
2022/04/29 06:01:46;;;;;;;54.20;22.87;;;9.30;99.90;;;;;;4417651;28;657347;-67
2022/04/29 06:04:33;;;;;;;56.57;26.97;;;9.40;99.90;;;;;;4449483;28;657841;-67
2022/04/29 06:07:20;;;;;;;61.20;25.37;;;9.50;99.90;;;;;;4426570;28;657352;-67
2022/04/29 06:10:09;;;;;;;52.87;24.80;;;9.70;99.90;;;;;;4450661;28;658184;-67
2022/04/29 06:12:57;;;;;;;53.20;23.80;;;9.90;99.90;;;;;;4427886;28;658409;-67
2022/04/29 06:15:44;;;;;;;56.50;23.43;;;10.00;99.90;;;;;;4443243;28;658109;-67
2022/04/29 06:18:33;;;;;;;52.93;22.17;;;10.30;99.90;;;;;;4427261;28;658542;-68
2022/04/29 06:21:20;;;;;;;47.60;21.27;;;10.40;99.90;;;;;;4434937;28;658907;-67
2022/04/29 06:24:08;;;;;;;53.97;22.57;;;10.50;99.90;;;;;;4445263;28;659075;-68
2022/04/29 06:26:57;;;;;;;65.40;22.73;;;10.60;99.90;;;;;;4409404;28;658658;-67
2022/04/29 06:29:44;;;;;;;53.67;22.00;;;10.80;99.90;;;;;;4440231;28;659909;-67
2022/04/29 06:32:31;;;;;;;53.00;21.57;;;11.00;99.90;;;;;;4424543;28;658521;-67
2022/04/29 06:35:19;;;;;;;51.57;21.67;;;11.20;99.90;;;;;;4439948;28;659316;-68
2022/04/29 06:38:06;;;;;;;53.43;22.50;;;11.10;99.90;;;;;;4416937;28;659154;-68
2022/04/29 06:40:55;;;;;;;47.43;21.33;;;11.20;95.80;;;;;;4444621;28;659283;-67
2022/04/29 06:43:44;;;;;;;45.43;20.43;;;11.20;95.20;;;;;;4415615;28;658994;-68
2022/04/29 06:46:31;;;;;;;45.80;21.37;;;11.20;92.00;;;;;;4417177;28;658420;-68
2022/04/29 06:49:18;;;;;;;54.10;21.20;;;11.20;96.90;;;;;;4443851;28;659480;-68
2022/04/29 06:52:06;;;;;;;58.23;21.60;;;11.10;92.00;;;;;;4422978;28;658238;-68
2022/04/29 06:54:54;;;;;;;47.60;21.17;;;11.00;90.30;;;;;;4417400;28;658891;-68
2022/04/29 06:57:41;;;;;;;50.47;21.00;;;11.10;93.30;;;;;;4404047;28;659149;-67
2022/04/29 07:00:30;;;;;;;40.67;17.67;;;11.30;89.30;;;;;;4423618;28;659208;-68
2022/04/29 07:03:17;;;;;;;38.80;16.60;;;11.30;86.70;;;;;;4399757;28;659305;-68
2022/04/29 07:06:05;;;;;;;32.97;15.20;;;11.50;80.20;;;;;;4429731;28;658777;-67
2022/04/29 07:08:53;;;;;;;35.30;15.07;;;11.60;77.40;;;;;;4409272;28;659042;-68
2022/04/29 07:11:40;;;;;;;29.17;14.30;;;11.90;78.90;;;;;;4419128;28;659070;-68
2022/04/29 07:14:27;;;;;;;35.63;13.37;;;12.10;77.10;;;;;;4420867;28;659497;-68
2022/04/29 07:17:17;;;;;;;33.70;14.23;;;12.50;66.80;;;;;;4415359;28;658865;-68
2022/04/29 07:20:06;;;;;;;29.57;13.40;;;12.70;66.50;;;;;;4431880;28;659290;-68
2022/04/29 07:22:53;;;;;;;32.30;12.23;;;13.00;64.20;;;;;;4418194;28;659406;-68
2022/04/29 07:25:41;;;;;;;29.63;11.43;;;12.70;58.40;;;;;;4424106;28;658391;-67
2022/04/29 07:28:28;;;;;;;24.63;10.47;;;12.90;59.50;;;;;;4443337;28;659125;-68
2022/04/29 07:31:15;;;;;;;26.17;10.60;;;13.10;57.40;;;;;;4424154;28;658550;-67
2022/04/29 07:34:04;;;;;;;23.23;9.17;;;13.00;55.10;;;;;;4445101;28;658947;-68
2022/04/29 07:43:00;;;;;;;27.93;9.60;;;13.00;55.10;;;;;;4403041;28;657703;-68
2022/04/29 07:45:51;;;;;;;25.10;10.37;;;13.40;55.90;;;;;;4442601;28;658941;-67
2022/04/29 07:48:38;;;;;;;24.57;9.30;;;13.50;54.80;;;;;;4424029;28;659577;-67
2022/04/29 07:51:27;;;;;;;22.07;8.17;;;13.40;52.60;;;;;;4427543;28;658042;-68
2022/04/29 07:54:15;;;;;;;19.33;7.93;;;13.30;54.60;;;;;;4441737;28;657787;-68
2022/04/29 07:57:02;;;;;;;22.80;8.10;;;13.20;51.60;;;;;;4424734;28;659069;-68
2022/04/29 07:59:49;;;;;;;19.27;7.63;;;13.40;52.60;;;;;;4446967;28;657461;-67
2022/04/29 08:02:36;;;;;;;12.95;6.43;;;13.70;51.30;;;;;;4424673;28;657844;-67
2022/04/29 08:05:23;;;;;;;14.27;6.50;;;13.60;46.90;;;;;;4443389;28;657800;-68
2022/04/29 08:08:12;;;;;;;14.40;6.43;;;14.10;52.10;;;;;;4412928;28;658460;-68
2022/04/29 08:10:59;;;;;;;22.23;6.90;;;14.00;47.30;;;;;;4446939;28;657264;-68
2022/04/29 08:13:47;;;;;;;24.83;6.67;;;14.10;47.40;;;;;;4424334;28;657888;-68
2022/04/29 08:16:35;;;;;;;13.70;5.50;;;14.20;48.00;;;;;;4443760;28;657682;-68
2022/04/29 08:19:23;;;;;;;12.67;5.07;;;14.80;50.20;;;;;;4421804;28;659430;-68
2022/04/29 08:22:10;;;;;;;13.23;5.47;;;15.10;47.70;;;;;;4430360;28;657502;-68
2022/04/29 08:24:59;;;;;;;17.43;5.43;;;15.00;43.70;;;;;;4446542;28;657214;-68
2022/04/29 08:27:47;;;;;;;10.67;5.03;;;14.20;43.30;;;;;;4399775;28;657422;-67
2022/04/29 08:30:34;;;;;;;15.77;5.60;;;14.10;41.80;;;;;;4426276;28;657867;-67
2022/04/29 08:33:22;;;;;;;15.37;5.30;;;14.20;43.40;;;;;;4406670;28;657707;-68
2022/04/29 08:36:09;;;;;;;14.23;6.03;;;14.50;45.50;;;;;;4423130;28;657923;-68
2022/04/29 08:38:56;;;;;;;14.70;6.10;;;14.50;43.30;;;;;;4412720;28;658366;-68
2022/04/29 08:41:45;;;;;;;11.70;5.70;;;14.40;44.10;;;;;;4443063;28;658917;-68
2022/04/29 08:44:32;;;;;;;9.83;4.43;;;14.60;43.00;;;;;;4421041;28;658728;-68
2022/04/29 08:47:19;;;;;;;11.97;4.77;;;14.30;44.40;;;;;;4441694;28;656741;-67
2022/04/29 08:50:08;;;;;;;19.90;5.97;;;15.10;44.80;;;;;;4419717;28;657625;-68
2022/04/29 08:52:55;;;;;;;10.63;5.03;;;15.60;45.70;;;;;;4424272;28;657903;-68
2022/04/29 08:58:50;;;;;;;9.77;4.33;;;14.90;45.80;;;;;;4421601;28;656605;-68
2022/04/29 09:01:38;;;;;;;13.07;4.60;;;14.50;44.40;;;;;;4420212;28;657739;-68
2022/04/29 09:04:26;;;;;;;8.50;3.43;;;14.50;47.30;;;;;;4423158;28;657528;-67
2022/04/29 09:07:13;;;;;;;7.73;3.13;;;13.80;41.60;;;;;;4442436;28;657571;-67
2022/04/29 09:10:04;;;;;;;8.27;3.60;;;13.70;42.20;;;;;;4428381;28;657042;-67
2022/04/29 09:12:52;;;;;;;10.50;4.20;;;14.50;44.40;;;;;;4421230;28;656806;-68
2022/04/29 09:15:47;;;;;;;5.70;3.20;;;15.40;43.70;;;;;;4442143;28;657592;-68
2022/04/29 09:18:37;;;;;;;7.27;3.33;;;15.50;44.20;;;;;;4419048;28;657339;-68
2022/04/29 09:21:25;;;;;;;8.20;3.37;;;15.90;42.20;;;;;;4421310;28;656050;-68
2022/04/29 09:24:12;;;;;;;9.60;3.60;;;16.10;39.70;;;;;;4419053;28;656817;-68
2022/04/29 09:27:00;;;;;;;10.03;3.90;;;16.00;39.70;;;;;;4441265;28;656583;-68
2022/04/29 09:29:48;;;;;;;6.67;3.50;;;16.60;41.90;;;;;;4443099;28;659089;-68
2022/04/29 09:32:49;;;;;;;5.53;3.77;;;17.40;40.20;;;;;;4428584;28;656369;-69
2022/04/29 09:35:37;;;;;;;8.77;4.30;;;18.10;39.60;;;;;;4425837;28;656466;-68
2022/04/29 09:41:29;;;;;;;6.13;3.90;;;17.90;37.40;;;;;;4426900;28;656548;-68
2022/04/29 09:44:26;;;;;;;7.53;3.80;;;18.20;36.20;;;;;;4426731;28;656706;-68
2022/04/29 09:47:15;;;;;;;6.03;3.97;;;17.40;33.70;;;;;;4422143;28;656908;-68
2022/04/29 09:50:04;;;;;;;6.47;3.70;;;16.60;36.70;;;;;;4423519;28;658330;-67
2022/04/29 09:52:51;;;;;;;5.33;3.63;;;15.70;36.20;;;;;;4430327;28;656869;-68
2022/04/29 09:55:39;;;;;;;7.70;3.70;;;16.60;37.30;;;;;;4448106;28;656291;-68
2022/04/29 09:58:26;;;;;;;6.77;3.20;;;16.10;36.60;;;;;;4424219;28;656767;-68
2022/04/29 10:01:15;;;;;;;6.30;3.00;;;16.20;37.10;;;;;;4448942;28;657189;-68
2022/04/29 10:04:03;;;;;;;8.90;3.00;;;15.80;36.20;;;;;;4429968;28;657073;-68
2022/04/29 10:06:53;;;;;;;10.40;4.07;;;15.60;38.00;;;;;;4432888;28;656387;-67
2022/04/29 10:09:45;;;;;;;12.90;4.57;;;15.30;38.20;;;;;;4437911;28;658262;-68
2022/04/29 10:12:33;;;;;;;13.33;4.87;;;15.20;39.20;;;;;;4440049;28;658111;-67
2022/04/29 10:15:21;;;;;;;8.47;4.20;;;15.20;39.90;;;;;;4433689;28;657696;-67
2022/04/29 10:21:17;;;;;;;8.27;3.60;;;15.70;43.20;;;;;;4425805;28;658185;-68
2022/04/29 10:24:06;;;;;;;8.57;4.10;;;17.20;41.10;;;;;;4426778;28;656877;-68
2022/04/29 10:26:54;;;;;;;8.73;3.90;;;17.20;36.80;;;;;;4426506;28;656942;-68
2022/04/29 10:29:41;;;;;;;8.13;3.67;;;17.70;38.00;;;;;;4430317;28;656766;-68
2022/04/29 10:32:28;;;;;;;7.30;3.70;;;17.30;35.40;;;;;;4447520;28;657485;-68
2022/04/29 10:35:50;;;;;;;9.30;3.50;;;17.90;37.80;;;;;;4428366;28;657106;-68
2022/04/29 10:38:38;;;;;;;8.90;3.90;;;16.70;36.40;;;;;;4402294;28;657084;-68
2022/04/29 10:41:27;;;;;;;7.40;3.30;;;17.30;36.70;;;;;;4421106;28;656618;-68
2022/04/29 10:44:15;;;;;;;8.40;3.90;;;17.20;39.10;;;;;;4442776;28;657063;-68
2022/04/29 10:47:26;;;;;;;10.87;4.47;;;16.80;35.90;;;;;;4426981;28;656304;-68
2022/04/29 10:50:38;;;;;;;6.70;4.13;;;16.20;38.00;;;;;;4420878;28;657731;-68
2022/04/29 10:53:27;;;;;;;8.37;3.93;;;15.90;36.70;;;;;;4411329;28;656279;-68
2022/04/29 10:56:37;;;;;;;8.30;3.80;;;15.90;38.20;;;;;;4450854;28;656905;-68
2022/04/29 10:59:25;;;;;;;7.87;4.20;;;15.60;36.30;;;;;;4428227;28;656549;-68
2022/04/29 11:02:14;;;;;;;9.13;4.00;;;15.20;37.60;;;;;;4443789;28;657076;-68
2022/04/29 11:05:03;;;;;;;10.00;4.07;;;16.50;38.20;;;;;;4423568;28;656698;-68
2022/04/29 11:07:52;;;;;;;9.77;3.87;;;17.70;41.80;;;;;;4434619;28;658516;-68
2022/04/29 11:10:55;;;;;;;8.13;4.17;;;17.40;35.90;;;;;;4440431;28;656767;-68
2022/04/29 11:13:44;;;;;;;7.53;4.27;;;16.50;33.10;;;;;;4404003;28;657169;-68
2022/04/29 11:16:52;;;;;;;10.20;3.70;;;16.80;35.50;;;;;;4427795;28;656860;-68
2022/04/29 11:19:45;;;;;;;6.37;4.17;;;16.60;35.10;;;;;;4429918;28;657908;-67
2022/04/29 11:25:47;;;;;;;9.07;4.27;;;16.20;36.10;;;;;;4391922;28;657266;-67
2022/04/29 11:28:34;;;;;;;10.30;4.00;;;17.20;36.90;;;;;;4433446;28;656510;-67
2022/04/29 11:31:23;;;;;;;12.97;4.40;;;16.80;35.90;;;;;;4421908;28;660187;-68
2022/04/29 11:34:11;;;;;;;10.70;3.80;;;17.50;33.10;;;;;;4430328;28;657389;-67
2022/04/29 11:36:58;;;;;;;8.50;3.60;;;17.10;32.10;;;;;;4449861;28;658380;-68
2022/04/29 11:39:46;;;;;;;6.73;3.57;;;16.10;32.90;;;;;;4418372;28;657048;-67
2022/04/29 11:42:33;;;;;;;12.53;4.03;;;17.10;36.00;;;;;;4447226;28;657130;-68
2022/04/29 11:45:22;;;;;;;9.93;3.50;;;17.00;36.40;;;;;;4422787;28;657895;-68
2022/04/29 11:48:10;;;;;;;8.37;3.90;;;17.20;38.10;;;;;;4458965;28;656378;-68
2022/04/29 11:50:58;;;;;;;9.17;3.87;;;17.80;39.30;;;;;;4423868;28;658608;-68
2022/04/29 11:53:56;;;;;;;10.63;3.50;;;18.00;35.70;;;;;;4428296;28;657589;-68
2022/04/29 11:56:43;;;;;;;9.40;4.17;;;17.60;37.10;;;;;;4422454;28;657901;-68
2022/04/29 11:59:30;;;;;;;8.23;3.73;;;17.00;34.80;;;;;;4434499;28;656979;-68
2022/04/29 12:02:18;;;;;;;10.53;3.63;;;17.20;38.30;;;;;;4456508;28;657007;-68
2022/04/29 12:05:08;;;;;;;13.77;3.60;;;16.60;36.90;;;;;;4417490;28;657699;-67
2022/04/29 12:07:58;;;;;;;6.97;3.30;;;16.70;39.40;;;;;;4435210;28;657980;-68
2022/04/29 12:10:46;;;;;;;11.93;4.10;;;16.70;35.80;;;;;;4422605;28;657402;-68
2022/04/29 12:13:34;;;;;;;8.70;3.53;;;17.10;37.60;;;;;;4450376;28;658301;-67
2022/04/29 12:16:22;;;;;;;9.73;3.90;;;17.00;36.70;;;;;;4432560;28;656467;-68
2022/04/29 12:19:15;;;;;;;13.73;3.90;;;16.70;35.70;;;;;;4438040;28;656674;-68
2022/04/29 12:22:04;;;;;;;9.47;3.90;;;16.40;34.80;;;;;;4399540;28;658960;-67
2022/04/29 12:24:51;;;;;;;8.50;4.00;;;16.40;36.50;;;;;;4442110;28;656613;-68
2022/04/29 12:27:38;;;;;;;7.67;3.67;;;16.70;36.90;;;;;;4454592;28;657190;-68
2022/04/29 12:36:52;;;;;;;8.57;3.57;;;16.60;36.10;;;;;;4408358;28;657919;-68
2022/04/29 12:39:43;;;;;;;12.13;3.60;;;16.80;36.00;;;;;;4446632;28;656783;-68
2022/04/29 12:42:30;;;;;;;9.77;3.40;;;16.70;34.60;;;;;;4401901;28;657692;-68
2022/04/29 12:45:22;;;;;;;7.10;3.47;;;16.30;34.80;;;;;;4444970;28;657253;-68
2022/04/29 12:48:11;;;;;;;7.33;3.50;;;16.40;34.50;;;;;;4420198;28;656615;-68
2022/04/29 12:50:58;;;;;;;9.73;3.90;;;16.20;34.70;;;;;;4424312;28;657580;-67
2022/04/29 12:53:46;;;;;;;7.77;3.70;;;15.90;35.00;;;;;;4421977;28;657029;-67
2022/04/29 12:56:35;;;;;;;12.23;3.43;;;16.20;36.60;;;;;;4444987;28;658214;-67
2022/04/29 12:59:23;;;;;;;8.73;3.40;;;16.50;39.10;;;;;;4415560;28;658893;-67
2022/04/29 13:02:10;;;;;;;10.20;4.03;;;16.60;36.80;;;;;;4438062;28;657688;-67
2022/04/29 13:04:57;;;;;;;12.10;4.10;;;16.70;36.70;;;;;;4452170;28;659119;-68
2022/04/29 13:07:44;;;;;;;10.10;3.53;;;16.80;36.60;;;;;;4445506;28;657749;-68
2022/04/29 13:10:32;;;;;;;5.57;3.40;;;17.10;34.20;;;;;;4425311;28;658078;-68
2022/04/29 13:13:21;;;;;;;9.27;3.70;;;16.60;35.00;;;;;;4446902;28;656928;-68
2022/04/29 13:16:08;;;;;;;8.47;3.27;;;16.70;34.60;;;;;;4423366;28;657449;-67
2022/04/29 13:18:55;;;;;;;10.17;3.40;;;16.60;33.50;;;;;;4430517;28;659667;-68
2022/04/29 13:21:43;;;;;;;5.20;3.07;;;17.60;34.80;;;;;;4448179;28;658589;-68
2022/04/29 13:24:30;;;;;;;10.37;3.40;;;18.10;33.60;;;;;;4441294;28;656212;-67
2022/04/29 13:27:19;;;;;;;10.07;3.20;;;18.10;32.10;;;;;;4452492;28;657841;-68
2022/04/29 13:30:09;;;;;;;5.10;2.80;;;19.00;34.30;;;;;;4428880;28;657496;-68
2022/04/29 13:32:56;;;;;;;7.20;3.07;;;18.90;30.70;;;;;;4433156;28;656179;-68
2022/04/29 13:35:43;;;;;;;7.17;2.70;;;19.40;29.90;;;;;;4448701;28;657116;-68
2022/04/29 13:38:32;;;;;;;7.90;2.60;;;19.50;31.90;;;;;;4429628;28;656478;-67
2022/04/29 13:41:19;;;;;;;7.20;2.40;;;18.30;32.40;;;;;;4458458;28;656666;-68
2022/04/29 13:44:06;;;;;;;9.20;2.90;;;17.30;30.80;;;;;;4429322;28;656470;-67
2022/04/29 13:46:55;;;;;;;7.53;2.70;;;16.90;32.40;;;;;;4447863;28;656708;-68
2022/04/29 13:49:43;;;;;;;8.30;2.70;;;17.60;33.10;;;;;;4429703;28;657598;-68
2022/04/29 13:55:35;;;;;;;4.60;2.60;;;17.80;31.00;;;;;;4407213;28;656439;-68
2022/04/29 13:58:23;;;;;;;5.07;2.77;;;17.80;32.20;;;;;;4445401;28;656603;-67
2022/04/29 14:01:10;;;;;;;5.20;2.70;;;18.20;34.90;;;;;;4428196;28;656754;-67
2022/04/29 14:03:59;;;;;;;6.53;2.80;;;18.70;32.50;;;;;;4451797;28;658399;-68
2022/04/29 14:06:46;;;;;;;6.10;2.90;;;18.50;30.60;;;;;;4427085;28;656595;-68
2022/04/29 14:09:33;;;;;;;5.00;2.47;;;18.60;33.10;;;;;;4453753;28;656946;-68
2022/04/29 14:12:20;;;;;;;6.30;2.40;;;18.30;31.50;;;;;;4428202;28;656731;-68
2022/04/29 14:15:09;;;;;;;4.60;2.50;;;18.90;32.00;;;;;;4447116;28;657827;-67
2022/04/29 14:17:56;;;;;;;4.63;2.37;;;17.70;30.80;;;;;;4429566;28;656250;-68
2022/04/29 14:20:44;;;;;;;7.27;2.47;;;17.30;32.00;;;;;;4447632;28;657161;-67
2022/04/29 14:23:31;;;;;;;7.33;2.53;;;16.70;33.50;;;;;;4428086;28;657502;-67
2022/04/29 14:26:19;;;;;;;11.23;2.50;;;16.20;33.90;;;;;;4447459;28;656815;-68
2022/04/29 14:29:06;;;;;;;7.70;2.73;;;16.70;36.40;;;;;;4425720;28;657602;-68
2022/04/29 14:31:53;;;;;;;4.53;1.80;;;17.30;34.10;;;;;;4445200;28;657287;-67
2022/04/29 14:34:40;;;;;;;9.37;3.00;;;17.10;33.70;;;;;;4426465;28;656776;-68
2022/04/29 14:37:31;;;;;;;4.77;2.80;;;18.10;32.40;;;;;;4449966;28;658030;-68
2022/04/29 14:40:18;;;;;;;9.10;2.70;;;17.80;30.40;;;;;;4417435;28;657579;-68
2022/04/29 14:43:05;;;;;;;12.17;3.27;;;17.90;31.80;;;;;;4427047;28;656500;-67
2022/04/29 14:45:52;;;;;;;3.87;2.27;;;17.80;29.40;;;;;;4442546;28;658701;-67
2022/04/29 14:48:43;;;;;;;3.40;2.53;;;18.10;31.60;;;;;;4436440;28;656535;-68
2022/04/29 14:51:30;;;;;;;6.43;2.53;;;17.60;31.00;;;;;;4434733;28;656570;-68
2022/04/29 14:54:19;;;;;;;6.23;2.23;;;16.80;30.00;;;;;;4443202;28;655783;-67
2022/04/29 14:57:09;;;;;;;4.10;2.10;;;17.00;32.70;;;;;;4423694;28;656420;-68
2022/04/29 14:59:56;;;;;;;5.97;2.75;;;17.10;35.80;;;;;;4423237;28;657521;-68